createdAt,value
2022-09-24T00:01:18.933Z,78.05
2022-09-24T00:06:22.486Z,78.32
2022-09-24T00:11:26.830Z,78.44
2022-09-24T00:16:37.964Z,78.28
2022-09-24T00:21:41.098Z,78.38
2022-09-24T00:26:51.974Z,78.69
2022-09-24T00:31:53.913Z,78.99
2022-09-24T00:36:55.708Z,79.23
2022-09-24T00:41:59.671Z,79.33
2022-09-24T00:47:05.516Z,79.28
2022-09-24T00:52:07.784Z,78.22
2022-09-24T00:57:09.967Z,77.39
2022-09-24T01:02:12.790Z,77.84
2022-09-24T01:07:14.818Z,76.94
2022-09-24T01:12:44.735Z,77.31
2022-09-24T01:18:04.595Z,77.46
2022-09-24T01:23:37.746Z,77.62
2022-09-24T01:29:17.288Z,78.36
2022-09-24T01:34:27.019Z,78.97
2022-09-24T01:39:31.341Z,79.36
2022-09-24T01:44:34.985Z,79.12
2022-09-24T01:49:36.973Z,79.71
2022-09-24T01:54:42.431Z,80.19
2022-09-24T01:59:52.375Z,79.77
2022-09-24T02:05:32.671Z,79.51
2022-09-24T02:11:11.421Z,79.19
2022-09-24T02:16:14.795Z,79.15
2022-09-24T02:21:19.849Z,79.23
2022-09-24T02:26:24.517Z,79.37
2022-09-24T02:31:38.052Z,79.37
2022-09-24T02:36:47.735Z,79.81
2022-09-24T02:41:50.151Z,79.94
2022-09-24T02:46:52.827Z,80.04
2022-09-24T02:51:56.039Z,80.40
2022-09-24T02:56:58.076Z,80.68
2022-09-24T03:02:07.178Z,80.23
2022-09-24T03:07:10.471Z,80.33
2022-09-24T03:12:12.719Z,80.50
2022-09-24T03:17:14.453Z,80.45
2022-09-24T03:22:16.391Z,80.70
2022-09-24T03:27:18.255Z,80.86
2022-09-24T03:32:20.184Z,81.01
2022-09-24T03:37:21.902Z,80.96
2022-09-24T03:42:23.625Z,80.80
2022-09-24T03:47:25.643Z,80.72
2022-09-24T03:52:27.658Z,80.34
2022-09-24T03:57:29.543Z,80.07
2022-09-24T04:02:31.351Z,79.77
2022-09-24T04:07:33.305Z,79.43
2022-09-24T04:12:34.994Z,79.42
2022-09-24T04:17:36.837Z,79.64
2022-09-24T04:22:39.426Z,79.57
2022-09-24T04:27:41.468Z,79.52
2022-09-24T04:32:43.402Z,79.54
2022-09-24T04:37:46.208Z,79.67
2022-09-24T04:42:48.273Z,79.67
2022-09-24T04:47:56.178Z,79.60
2022-09-24T04:52:57.984Z,79.58
2022-09-24T04:57:59.710Z,79.50
2022-09-24T05:03:05.284Z,79.42
2022-09-24T05:08:07.201Z,79.37
2022-09-24T05:13:09.693Z,79.28
2022-09-24T05:18:11.768Z,79.33
2022-09-24T05:23:13.615Z,79.41
2022-09-24T05:28:15.311Z,79.14
2022-09-24T05:33:17.147Z,78.77
2022-09-24T05:38:18.865Z,78.56
2022-09-24T05:43:20.673Z,78.43
2022-09-24T05:48:31.717Z,78.21
2022-09-24T05:53:41.161Z,78.23
2022-09-24T05:58:43.068Z,77.86
2022-09-24T06:03:45.043Z,77.93
2022-09-24T06:08:46.838Z,77.84
2022-09-24T06:13:49.693Z,78.03
2022-09-24T06:18:51.586Z,77.66
2022-09-24T06:23:53.376Z,77.46
2022-09-24T06:28:56.237Z,77.92
2022-09-24T06:34:00.614Z,77.97
2022-09-24T06:39:02.398Z,77.78
2022-09-24T06:44:04.275Z,77.54
2022-09-24T06:49:06.190Z,76.99
2022-09-24T06:54:07.965Z,76.19
2022-09-24T06:59:10.081Z,76.27
2022-09-24T07:04:12.024Z,75.24
2022-09-24T07:09:13.769Z,74.49
2022-09-24T07:14:15.785Z,74.59
2022-09-24T07:19:17.476Z,74.20
2022-09-24T07:24:19.220Z,73.91
2022-09-24T07:29:25.053Z,73.20
2022-09-24T07:34:27.176Z,72.61
2022-09-24T07:39:29.015Z,72.24
2022-09-24T07:44:50.713Z,71.54
2022-09-24T07:50:00.333Z,70.90
2022-09-24T07:55:02.047Z,70.15
2022-09-24T08:00:07.959Z,68.90
2022-09-24T08:05:18.179Z,68.38
2022-09-24T08:10:20.206Z,67.78
2022-09-24T08:15:22.867Z,67.11
2022-09-24T08:20:24.858Z,66.14
2022-09-24T08:25:26.612Z,64.93
2022-09-24T08:30:28.303Z,64.44
2022-09-24T08:35:30.159Z,63.91
2022-09-24T08:40:46.059Z,64.56
2022-09-24T08:46:30.712Z,64.12
2022-09-24T08:51:41.484Z,63.62
2022-09-24T08:57:03.696Z,62.99
2022-09-24T09:02:21.005Z,62.17
2022-09-24T09:07:32.618Z,61.46
2022-09-24T09:12:38.760Z,59.16
2022-09-24T09:17:54.832Z,60.15
2022-09-24T09:23:03.667Z,60.12
2022-09-24T09:28:15.704Z,59.72
2022-09-24T09:33:46.553Z,58.76
2022-09-24T09:39:06.098Z,58.57
2022-09-24T09:44:20.453Z,58.01
2022-09-24T09:49:36.351Z,57.06
2022-09-24T09:54:39.624Z,57.43
2022-09-24T09:59:45.531Z,56.80
2022-09-24T10:04:50.052Z,56.07
2022-09-24T10:10:13.859Z,56.40
2022-09-24T10:15:34.740Z,55.80
2022-09-24T10:20:50.612Z,55.41
2022-09-24T10:26:00.126Z,55.10
2022-09-24T10:31:07.219Z,54.08
2022-09-24T10:36:17.139Z,53.76
2022-09-24T10:41:27.262Z,51.86
2022-09-24T10:46:35.147Z,51.01
2022-09-24T10:51:49.914Z,51.25
2022-09-24T10:56:55.833Z,50.55
2022-09-24T11:02:26.226Z,50.54
2022-09-24T11:08:02.700Z,49.81
2022-09-24T11:13:26.034Z,49.12
2022-09-24T11:18:46.675Z,48.00
2022-09-24T11:24:09.836Z,45.60
2022-09-24T11:29:36.832Z,43.92
2022-09-24T11:35:21.811Z,45.54
2022-09-24T11:40:42.745Z,45.57
2022-09-24T11:45:50.557Z,44.92
2022-09-24T11:51:20.931Z,43.96
2022-09-24T11:56:50.726Z,43.31
2022-09-24T12:02:19.387Z,43.87
2022-09-24T12:07:37.974Z,43.74
2022-09-24T12:12:43.091Z,42.65
2022-09-24T12:18:09.072Z,43.45
2022-09-24T12:23:14.828Z,43.28
2022-09-24T12:28:39.359Z,43.27
2022-09-24T12:33:49.161Z,42.75
2022-09-24T12:39:02.565Z,43.52
2022-09-24T12:44:10.091Z,43.49
2022-09-24T12:49:34.400Z,42.93
2022-09-24T12:54:39.395Z,42.38
2022-09-24T12:59:56.646Z,41.49
2022-09-24T13:05:01.547Z,41.13
2022-09-24T13:10:18.533Z,41.19
2022-09-24T13:15:32.622Z,40.04
2022-09-24T13:20:36.300Z,41.45
2022-09-24T13:25:38.621Z,42.21
2022-09-24T13:30:42.986Z,42.16
2022-09-24T13:36:02.098Z,43.16
2022-09-24T13:41:26.047Z,44.01
2022-09-24T13:46:30.163Z,44.16
2022-09-24T13:51:38.119Z,44.26
2022-09-24T13:56:40.302Z,44.35
2022-09-24T14:01:44.163Z,44.50
2022-09-24T14:07:04.748Z,44.36
2022-09-24T14:12:21.334Z,43.92
2022-09-24T14:17:23.224Z,43.69
2022-09-24T14:22:34.052Z,43.99
2022-09-24T14:27:45.813Z,43.74
2022-09-24T14:32:53.481Z,43.09
2022-09-24T14:38:02.194Z,41.95
2022-09-24T14:43:03.989Z,42.04
2022-09-24T14:48:28.475Z,41.46
2022-09-24T14:53:37.809Z,41.41
2022-09-24T14:58:39.581Z,41.71
2022-09-24T15:03:51.935Z,42.24
2022-09-24T15:08:59.110Z,42.42
2022-09-24T15:14:19.825Z,42.70
2022-09-24T15:19:24.887Z,43.28
2022-09-24T15:24:26.923Z,44.03
2022-09-24T15:29:28.659Z,44.95
2022-09-24T15:34:30.358Z,45.61
2022-09-24T15:39:32.303Z,47.52
2022-09-24T15:44:34.409Z,48.54
2022-09-24T15:49:50.682Z,50.22
2022-09-24T15:55:14.307Z,51.51
2022-09-24T16:00:18.912Z,52.27
2022-09-24T16:05:21.094Z,53.91
2022-09-24T16:10:22.932Z,56.08
2022-09-24T16:15:24.843Z,58.97
2022-09-24T16:20:26.825Z,60.26
2022-09-24T16:25:29.238Z,61.51
2022-09-24T16:30:38.293Z,62.93
2022-09-24T16:35:40.579Z,63.90
2022-09-24T16:40:42.759Z,63.85
2022-09-24T16:45:46.867Z,63.74
2022-09-24T16:50:57.752Z,63.82
2022-09-24T16:56:16.014Z,64.60
2022-09-24T17:01:21.377Z,65.65
2022-09-24T17:06:25.848Z,66.59
2022-09-24T17:11:27.685Z,66.69
2022-09-24T17:16:30.448Z,67.51
2022-09-24T17:21:33.075Z,69.19
2022-09-24T17:26:38.655Z,69.44
2022-09-24T17:31:40.815Z,70.28
2022-09-24T17:36:49.721Z,71.14
2022-09-24T17:42:05.171Z,71.42
2022-09-24T17:47:07.911Z,72.03
2022-09-24T17:52:09.798Z,72.35
2022-09-24T17:57:11.610Z,71.35
2022-09-24T18:02:15.538Z,72.89
2022-09-24T18:07:19.470Z,73.96
2022-09-24T18:12:21.544Z,75.38
2022-09-24T18:17:23.859Z,75.82
2022-09-24T18:22:25.900Z,76.27
2022-09-24T18:27:28.305Z,76.93
2022-09-24T18:32:31.924Z,77.22
2022-09-24T18:37:38.168Z,77.05
2022-09-24T18:42:40.179Z,76.82
2022-09-24T18:47:42.262Z,76.46
2022-09-24T18:52:44.435Z,77.58
2022-09-24T18:57:46.432Z,78.67
2022-09-24T19:02:48.898Z,78.95
2022-09-24T19:07:51.106Z,78.65
2022-09-24T19:12:55.322Z,79.28
2022-09-24T19:18:04.312Z,79.66
2022-09-24T19:23:08.567Z,79.98
2022-09-24T19:28:12.976Z,80.61
2022-09-24T19:33:17.247Z,81.22
2022-09-24T19:38:19.059Z,81.64
2022-09-24T19:43:22.495Z,80.55
2022-09-24T19:48:26.059Z,81.05
2022-09-24T19:53:29.710Z,81.62
2022-09-24T19:58:31.891Z,81.74
2022-09-24T20:03:37.456Z,81.86
2022-09-24T20:08:39.740Z,82.12
2022-09-24T20:13:46.402Z,82.88
2022-09-24T20:18:50.469Z,83.48
2022-09-24T20:23:54.594Z,83.17
2022-09-24T20:28:56.744Z,83.08
2022-09-24T20:34:01.780Z,83.49
2022-09-24T20:39:04.203Z,83.73
2022-09-24T20:44:06.011Z,84.27
2022-09-24T20:49:07.921Z,84.71
2022-09-24T20:54:16.275Z,85.19
2022-09-24T20:59:18.152Z,85.40
2022-09-24T21:04:23.521Z,85.50
2022-09-24T21:09:25.307Z,85.75
2022-09-24T21:14:29.004Z,85.94
2022-09-24T21:19:32.526Z,85.93
2022-09-24T21:24:34.949Z,85.96
2022-09-24T21:29:38.129Z,86.02
2022-09-24T21:34:41.655Z,85.98
2022-09-24T21:39:44.971Z,86.11
2022-09-24T21:44:48.042Z,86.22
2022-09-24T21:49:50.146Z,86.18
2022-09-24T21:54:51.848Z,86.27
2022-09-24T21:59:59.408Z,86.49
2022-09-24T22:05:01.601Z,86.71
2022-09-24T22:10:03.813Z,86.96
2022-09-24T22:15:06.899Z,87.14
2022-09-24T22:20:09.426Z,87.40
2022-09-24T22:25:11.126Z,87.32
2022-09-24T22:30:13.642Z,87.21
2022-09-24T22:35:36.422Z,87.19
2022-09-24T22:40:40.662Z,87.13
2022-09-24T22:46:02.699Z,87.17
2022-09-24T22:51:16.185Z,86.95
2022-09-24T22:56:21.273Z,87.11
2022-09-24T23:01:46.698Z,87.27
2022-09-24T23:07:02.049Z,87.41
2022-09-24T23:12:03.891Z,87.34
2022-09-24T23:17:05.752Z,87.17
2022-09-24T23:22:07.670Z,87.21
2022-09-24T23:27:10.483Z,87.30
2022-09-24T23:32:14.115Z,87.50
2022-09-24T23:37:16.022Z,87.67
2022-09-24T23:42:17.901Z,87.66
2022-09-24T23:47:19.628Z,87.80
2022-09-24T23:52:21.608Z,87.77
2022-09-24T23:57:23.408Z,87.84
